Lionhead Wind

Lionhead weather stationLocated on Lionhead Ridge near West Yellowstone. Use the nearest SNOTEL station for snow depth data: Madison Plateau. The data on this page is also available to view at dataGarrison.com.

Elevation
9420ft
Jump to table bottom
Date Time Temperature
deg F
RH, % Wind Speed Wind Gust Wind Direction Pressure Light
12/01/22 17:00 18.2 97 46 74 SW - 229 697.600 0
12/01/22 16:00 18.0 97 43 64 SW - 227 698.500 0
12/01/22 15:00 18.1 97 45 68 SW - 218 698.780 0
12/01/22 14:00 18.4 97 43 65 SW - 216 699.740 0
12/01/22 13:00 18.1 97 39 56 SW - 219 699.820 0
12/01/22 12:00 17.6 97 40 64 SW - 212 699.640 0
12/01/22 11:00 17.1 97 40 62 SW - 212 700.060 0
12/01/22 10:00 16.6 96 36 57 SW - 213 701.080 0
12/01/22 09:00 16.5 96 33 49 SW - 208 701.720 0
12/01/22 08:00 16.3 96 27 45 SW - 204 702.540 0
12/01/22 07:00 15.5 96 22 35 SW - 212 702.880 0
12/01/22 06:00 15.1 96 22 36 SW - 208 702.780 0
12/01/22 05:00 15.6 96 26 42 SW - 223 703.840 0
12/01/22 04:00 15.4 96 24 45 SW - 218 703.100 0
12/01/22 03:00 14.1 95 21 35 SW - 208 704.800 0
12/01/22 02:00 13.1 95 23 36 S - 199 705.200 0
12/01/22 01:00 12.4 95 25 41 S - 199 705.620 0
12/01/22 00:00 12.8 95 24 37 S - 202 706.420 0
11/30/22 23:00 11.8 94 24 37 SW - 206 706.240 0
11/30/22 22:00 11.9 94 26 40 SW - 206 706.180 0
11/30/22 21:00 12.0 94 23 35 SW - 211 705.740 0
11/30/22 20:00 12.1 94 21 30 SW - 211 706.220 0
11/30/22 19:00 11.8 94 24 34 SW - 208 706.020 0
11/30/22 18:00 11.9 94 20 30 SW - 205 706.180 0
11/30/22 17:00 11.4 94 19 27 S - 201 706.460 0
11/30/22 16:00 10.6 94 20 28 SW - 208 706.720 0
11/30/22 15:00 9.3 93 23 33 SW - 208 706.640 0
11/30/22 14:00 8.6 93 24 35 S - 202 706.860 0
11/30/22 13:00 8.1 93 23 38 SW - 216 707.320 0
11/30/22 12:00 7.0 92 28 41 SW - 212 707.980 0
11/30/22 11:00 5.8 92 27 39 SW - 213 707.960 0
11/30/22 10:00 4.9 92 28 39 SW - 209 708.680 0
11/30/22 09:00 4.0 91 26 37 SW - 208 708.760 0
11/30/22 08:00 3.3 91 29 43 SW - 208 708.560 0
11/30/22 07:00 2.9 91 31 46 SW - 208 708.780 0
11/30/22 06:00 2.4 91 33 47 SW - 213 708.280 0
11/30/22 05:00 2.1 90 29 44 SW - 215 708.720 0
11/30/22 04:00 1.6 90 27 40 SW - 219 709.300 0
11/30/22 03:00 1.1 90 33 45 SW - 226 708.940 0
11/30/22 02:00 1.0 90 30 43 SW - 223 708.420 0
11/30/22 01:00 0.8 90 29 43 SW - 223 708.300 0
11/30/22 00:00 0.5 90 22 39 SW - 212 708.760 0
11/29/22 23:00 0.3 90 18 27 SW - 208 709.460 0
11/29/22 22:00 0.1 89 15 22 SW - 213 709.520 0
11/29/22 21:00 -0.9 89 10 15 SW - 208 709.720 0
11/29/22 20:00 -1.8 89 9 16 SW - 220 709.640 0
11/29/22 19:00 -2.1 89 10 17 SW - 208 709.300 0
11/29/22 18:00 -2.1 89 13 20 SW - 209 708.900 0
11/29/22 17:00 -1.7 89 15 28 SW - 211 708.220 0
11/29/22 16:00 -0.5 90 16 29 SW - 220 707.280 0